Time;durP1;ratioP1;P1;durP2;ratioP2;P2;SDS_P1;SDS_P2;PMS_P1;PMS_P2;Temp;Humidity;BMP_temperature;BMP_pressure;BME280_temperature;BME280_humidity;BME280_pressure;Samples;Min_cycle;Max_cycle;Signal;HPM_P1;HPM_P2
2022/07/14 00:01:38;;;;;;;6.40;6.00;;;23.40;46.80;;;;;;5030704;28;20201;-48
2022/07/14 00:04:07;;;;;;;6.03;5.73;;;23.30;47.70;;;;;;5036611;28;20243;-49
2022/07/14 00:06:34;;;;;;;6.60;6.10;;;23.30;48.00;;;;;;5034328;28;20480;-50
2022/07/14 00:09:01;;;;;;;6.67;6.27;;;23.20;48.00;;;;;;5034655;28;20445;-52
2022/07/14 00:11:27;;;;;;;6.67;6.30;;;23.20;48.00;;;;;;5040843;28;20467;-52
2022/07/14 00:13:53;;;;;;;7.03;6.63;;;23.20;48.30;;;;;;5039772;28;20539;-47
2022/07/14 00:16:19;;;;;;;6.50;6.07;;;23.10;48.40;;;;;;5033435;28;20527;-52
2022/07/14 00:18:44;;;;;;;6.07;5.67;;;23.20;48.40;;;;;;5049315;28;20440;-49
2022/07/14 00:21:14;;;;;;;6.70;6.30;;;23.20;48.50;;;;;;5032273;28;21796;-51
2022/07/14 00:23:45;;;;;;;6.23;5.80;;;23.20;48.80;;;;;;5053696;28;20706;-53
2022/07/14 00:26:10;;;;;;;7.00;6.50;;;23.10;48.90;;;;;;5051611;28;21190;-50
2022/07/14 00:28:36;;;;;;;6.97;6.37;;;23.10;49.10;;;;;;5038693;28;20484;-48
2022/07/14 00:31:09;;;;;;;6.53;6.13;;;23.10;49.10;;;;;;5047051;28;20687;-48
2022/07/14 00:33:35;;;;;;;6.33;5.83;;;23.00;49.60;;;;;;5046160;28;20879;-51
2022/07/14 00:36:01;;;;;;;7.93;6.23;;;22.90;49.90;;;;;;5043503;28;20516;-53
2022/07/14 00:38:27;;;;;;;7.00;6.50;;;22.80;50.20;;;;;;5040824;28;20590;-53
2022/07/14 00:40:52;;;;;;;7.07;6.53;;;22.80;50.60;;;;;;5044711;28;20197;-52
2022/07/14 00:43:19;;;;;;;7.33;6.80;;;22.70;51.30;;;;;;5036958;28;20186;-50
2022/07/14 00:45:44;;;;;;;6.90;6.27;;;22.60;51.70;;;;;;5040428;28;20710;-49
2022/07/14 00:48:12;;;;;;;7.73;7.07;;;22.50;52.10;;;;;;5036401;28;20455;-51
2022/07/14 00:50:41;;;;;;;7.00;6.60;;;22.50;52.50;;;;;;5036467;28;20198;-55
2022/07/14 00:53:08;;;;;;;6.67;6.30;;;22.40;52.80;;;;;;5037674;28;20437;-50
2022/07/14 00:55:35;;;;;;;6.77;6.37;;;22.40;53.10;;;;;;5038296;28;20440;-52
2022/07/14 00:58:01;;;;;;;7.57;6.60;;;22.30;53.50;;;;;;5042040;28;20744;-48
2022/07/14 01:00:26;;;;;;;7.20;6.60;;;22.20;53.90;;;;;;5048606;28;20496;-48
2022/07/14 01:02:52;;;;;;;6.90;6.40;;;22.20;54.10;;;;;;5042381;28;20194;-53
2022/07/14 01:05:18;;;;;;;6.77;6.27;;;22.10;54.80;;;;;;5039888;28;20182;-51
2022/07/14 01:07:44;;;;;;;6.97;6.57;;;22.00;55.30;;;;;;5043239;28;20521;-50
2022/07/14 01:10:10;;;;;;;7.30;6.80;;;22.00;55.80;;;;;;5041982;28;20264;-49
2022/07/14 01:12:37;;;;;;;7.07;6.70;;;21.80;56.20;;;;;;5036639;28;20197;-51
2022/07/14 01:15:04;;;;;;;6.90;6.40;;;21.80;56.80;;;;;;5036282;28;20464;-50
2022/07/14 01:17:31;;;;;;;6.77;6.43;;;21.70;57.70;;;;;;5034110;28;20435;-52
2022/07/14 01:19:57;;;;;;;7.27;6.70;;;21.70;58.90;;;;;;5039105;28;20533;-53
2022/07/14 01:22:22;;;;;;;6.87;6.47;;;21.60;59.30;;;;;;5036718;28;21002;-53
2022/07/14 01:24:48;;;;;;;6.97;6.57;;;21.60;59.70;;;;;;5041382;28;20869;-51
2022/07/14 01:27:13;;;;;;;7.10;6.60;;;21.50;60.20;;;;;;5034118;28;20235;-49
2022/07/14 01:29:39;;;;;;;7.53;6.87;;;21.50;61.70;;;;;;5044775;28;20209;-48
2022/07/14 01:32:05;;;;;;;7.00;6.60;;;21.50;62.30;;;;;;5043580;28;20692;-51
2022/07/14 01:34:31;;;;;;;7.40;6.70;;;21.40;63.70;;;;;;5038156;28;20205;-51
2022/07/14 01:36:57;;;;;;;6.67;6.27;;;21.40;64.50;;;;;;5035477;28;21137;-52
2022/07/14 01:39:23;;;;;;;7.30;6.90;;;21.40;65.30;;;;;;5043986;28;20289;-51
2022/07/14 01:41:49;;;;;;;7.10;6.70;;;21.30;66.30;;;;;;5048171;28;20530;-48
2022/07/14 01:44:15;;;;;;;7.70;7.20;;;21.30;67.00;;;;;;5044991;28;20470;-47
2022/07/14 01:46:41;;;;;;;6.80;6.40;;;21.40;68.30;;;;;;5046072;28;20783;-51
2022/07/14 01:49:07;;;;;;;7.20;6.70;;;21.30;69.30;;;;;;5046050;28;20495;-47
2022/07/14 01:51:33;;;;;;;6.93;6.43;;;21.30;71.00;;;;;;5040604;28;20450;-54
2022/07/14 01:53:59;;;;;;;6.67;6.27;;;21.20;72.00;;;;;;5045463;28;20443;-55
2022/07/14 01:56:24;;;;;;;6.30;5.90;;;21.20;73.20;;;;;;5050993;28;20447;-48
2022/07/14 01:58:50;;;;;;;6.57;6.07;;;21.20;74.40;;;;;;5053377;28;20195;-50
2022/07/14 02:04:01;;;;;;;6.50;6.10;;;21.10;76.00;;;;;;5038463;28;20185;-51
2022/07/14 02:06:28;;;;;;;6.83;6.23;;;21.00;77.40;;;;;;5042304;28;20431;-50
2022/07/14 02:08:55;;;;;;;6.80;6.40;;;21.00;78.60;;;;;;5042721;28;20422;-50
2022/07/14 02:14:05;;;;;;;7.47;6.87;;;20.90;81.00;;;;;;5052106;28;20462;-53
2022/07/14 02:16:31;;;;;;;7.30;6.80;;;20.80;81.60;;;;;;5047244;28;20435;-53
2022/07/14 02:18:58;;;;;;;7.57;7.00;;;20.80;82.90;;;;;;5051748;28;20896;-52
2022/07/14 02:21:24;;;;;;;7.80;7.30;;;20.80;83.90;;;;;;5046473;28;20415;-53
2022/07/14 02:23:51;;;;;;;8.23;7.53;;;20.80;85.00;;;;;;5045106;28;20447;-50
2022/07/14 02:26:16;;;;;;;8.27;7.77;;;20.80;86.70;;;;;;5046475;28;20493;-53
2022/07/14 02:28:42;;;;;;;7.93;7.43;;;20.80;88.30;;;;;;5045311;28;20880;-48
2022/07/14 02:31:09;;;;;;;7.50;7.00;;;20.80;89.60;;;;;;5049260;28;20222;-52
2022/07/14 02:33:36;;;;;;;8.00;7.40;;;20.80;90.50;;;;;;5047100;28;20192;-49
2022/07/14 02:36:02;;;;;;;7.70;7.20;;;20.80;90.90;;;;;;5044000;28;20520;-53
2022/07/14 02:38:27;;;;;;;10.30;7.10;;;20.80;91.20;;;;;;5037172;28;20477;-49
2022/07/14 02:40:53;;;;;;;7.27;6.87;;;20.70;92.10;;;;;;5044839;28;21128;-52
2022/07/14 02:43:19;;;;;;;8.27;7.77;;;20.70;92.40;;;;;;5046044;28;20274;-49
2022/07/14 02:45:44;;;;;;;8.70;8.00;;;20.70;93.10;;;;;;5033431;28;20252;-51
2022/07/14 02:48:10;;;;;;;7.90;7.50;;;20.70;93.40;;;;;;5042611;28;20229;-54
2022/07/14 02:50:36;;;;;;;8.83;8.33;;;20.70;94.10;;;;;;5043673;28;20233;-52
2022/07/14 02:53:03;;;;;;;9.20;8.70;;;20.60;94.60;;;;;;5038144;28;20441;-49
2022/07/14 02:55:29;;;;;;;9.10;8.50;;;20.60;94.60;;;;;;5045022;28;20186;-49
2022/07/14 02:57:55;;;;;;;9.00;8.20;;;20.50;94.80;;;;;;5043605;28;20984;-51
2022/07/14 03:00:21;;;;;;;9.30;8.70;;;20.50;95.10;;;;;;5038292;28;20429;-49
2022/07/14 03:02:46;;;;;;;9.10;8.60;;;20.40;95.40;;;;;;5040978;28;20545;-51
2022/07/14 03:05:12;;;;;;;9.10;8.40;;;20.40;95.50;;;;;;5049459;28;21349;-52
2022/07/14 03:07:38;;;;;;;8.97;8.47;;;20.30;95.80;;;;;;5052168;28;21053;-52
2022/07/14 03:10:04;;;;;;;8.50;8.00;;;20.30;96.60;;;;;;5039934;28;20265;-49
2022/07/14 03:12:29;;;;;;;8.83;8.23;;;20.20;96.80;;;;;;5044906;28;20178;-50
2022/07/14 03:14:55;;;;;;;8.27;7.50;;;20.10;97.30;;;;;;5042311;28;20445;-51
2022/07/14 03:17:21;;;;;;;9.20;8.47;;;20.10;97.90;;;;;;5051501;28;20191;-49
2022/07/14 03:19:46;;;;;;;8.33;7.83;;;20.00;98.10;;;;;;5047487;28;20705;-53
2022/07/14 03:22:12;;;;;;;9.10;8.40;;;20.00;98.80;;;;;;5048044;28;20186;-49
2022/07/14 03:24:38;;;;;;;8.70;7.93;;;20.00;99.10;;;;;;5043985;28;20186;-53
2022/07/14 03:27:03;;;;;;;8.60;7.90;;;19.90;99.50;;;;;;5046824;28;20182;-50
2022/07/14 03:29:29;;;;;;;8.43;7.90;;;19.90;99.60;;;;;;5047125;28;20219;-48
2022/07/14 03:31:55;;;;;;;9.07;8.40;;;19.90;99.80;;;;;;5048217;28;20240;-49
2022/07/14 03:34:20;;;;;;;9.07;8.40;;;19.90;99.90;;;;;;5045897;28;20233;-49
2022/07/14 03:36:46;;;;;;;9.00;8.20;;;19.80;99.90;;;;;;5043194;28;20214;-48
2022/07/14 03:39:12;;;;;;;9.53;8.90;;;19.80;99.90;;;;;;5048892;28;20175;-50
2022/07/14 03:41:37;;;;;;;9.37;8.57;;;19.80;99.90;;;;;;5039508;28;20218;-55
2022/07/14 03:44:03;;;;;;;8.20;7.60;;;19.80;99.90;;;;;;5046952;28;20230;-53
2022/07/14 03:46:29;;;;;;;9.20;8.53;;;19.80;99.90;;;;;;5047209;28;20186;-54
2022/07/14 03:48:54;;;;;;;8.80;8.10;;;19.70;99.90;;;;;;5045453;28;20232;-49
2022/07/14 03:51:20;;;;;;;8.33;7.73;;;19.70;99.90;;;;;;5050192;28;20275;-54
2022/07/14 03:53:45;;;;;;;8.83;8.17;;;19.70;99.90;;;;;;5042116;28;20183;-51
2022/07/14 03:56:11;;;;;;;8.70;7.93;;;19.70;99.90;;;;;;5049387;28;20218;-49
2022/07/14 03:58:36;;;;;;;8.63;8.03;;;19.70;99.90;;;;;;5048109;28;20199;-52
2022/07/14 04:01:03;;;;;;;8.10;7.47;;;19.70;99.90;;;;;;5048477;28;20194;-51
2022/07/14 04:03:28;;;;;;;9.30;8.60;;;19.70;99.90;;;;;;5049386;28;20220;-52
2022/07/14 04:05:54;;;;;;;8.90;8.40;;;19.70;99.90;;;;;;5050928;28;20486;-51
2022/07/14 04:08:19;;;;;;;8.67;8.03;;;19.70;99.90;;;;;;5047854;28;20212;-46
2022/07/14 04:10:45;;;;;;;9.37;8.67;;;19.70;99.90;;;;;;5050995;28;20221;-47
2022/07/14 04:13:11;;;;;;;8.67;7.97;;;19.70;99.90;;;;;;5045785;28;20211;-53
2022/07/14 04:15:39;;;;;;;9.03;8.23;;;19.80;99.90;;;;;;5050179;28;20197;-52
2022/07/14 04:18:05;;;;;;;8.87;8.27;;;19.80;99.90;;;;;;5046411;28;20182;-49
2022/07/14 04:20:30;;;;;;;8.70;8.10;;;19.90;99.90;;;;;;5048630;28;20432;-51
2022/07/14 04:22:56;;;;;;;8.57;7.97;;;19.90;99.90;;;;;;5048365;28;20191;-52
2022/07/14 04:25:22;;;;;;;8.27;7.77;;;20.00;99.90;;;;;;5050683;28;20264;-51
2022/07/14 04:27:48;;;;;;;8.60;7.80;;;20.10;99.90;;;;;;5045874;28;20503;-48
2022/07/14 04:30:14;;;;;;;8.80;8.20;;;20.10;99.90;;;;;;5050962;28;20199;-49
2022/07/14 04:32:40;;;;;;;8.63;8.03;;;20.20;99.90;;;;;;5048930;28;20183;-48
2022/07/14 04:35:07;;;;;;;9.43;8.50;;;20.20;99.90;;;;;;5048440;28;20436;-49
2022/07/14 04:37:34;;;;;;;8.87;8.17;;;20.30;99.90;;;;;;5043503;28;20176;-51
2022/07/14 04:39:59;;;;;;;9.00;8.30;;;20.30;99.90;;;;;;5050443;28;20477;-49
2022/07/14 04:42:25;;;;;;;9.60;8.80;;;20.30;99.90;;;;;;5052470;28;20433;-54
2022/07/14 04:44:51;;;;;;;8.40;7.80;;;20.40;99.90;;;;;;5052544;28;20746;-48
2022/07/14 04:47:16;;;;;;;8.63;7.93;;;20.40;99.90;;;;;;5044933;28;20182;-49
2022/07/14 04:52:47;;;;;;;9.67;8.87;;;20.50;99.90;;;;;;5006032;28;20237;-52
2022/07/14 04:55:13;;;;;;;9.50;8.77;;;20.60;99.90;;;;;;5026274;28;20435;-52
2022/07/14 04:57:39;;;;;;;9.27;8.47;;;20.60;99.70;;;;;;5043062;28;20933;-51
2022/07/14 05:00:06;;;;;;;10.40;9.40;;;20.70;99.90;;;;;;5047421;28;20419;-53
2022/07/14 05:02:32;;;;;;;9.80;9.00;;;20.70;99.90;;;;;;5047431;28;20193;-52
2022/07/14 05:04:58;;;;;;;9.23;8.63;;;20.80;99.90;;;;;;5048542;28;20420;-50
2022/07/14 05:07:24;;;;;;;9.13;8.23;;;20.80;99.90;;;;;;5049074;28;20183;-49
2022/07/14 05:09:50;;;;;;;9.93;9.13;;;20.90;99.70;;;;;;5048463;28;20572;-52
2022/07/14 05:12:17;;;;;;;9.57;8.87;;;21.00;99.50;;;;;;5048350;28;20184;-52
2022/07/14 05:14:43;;;;;;;9.07;8.37;;;21.10;99.20;;;;;;5035020;28;20181;-49
2022/07/14 05:17:09;;;;;;;9.27;8.67;;;21.30;98.10;;;;;;5056564;28;20940;-47
2022/07/14 05:19:34;;;;;;;8.50;7.80;;;21.40;97.40;;;;;;5044696;28;20214;-49
2022/07/14 05:22:00;;;;;;;9.33;8.73;;;21.50;97.30;;;;;;5047682;28;20536;-50
2022/07/14 05:24:26;;;;;;;10.93;8.37;;;21.60;96.20;;;;;;5048742;28;20195;-51
2022/07/14 05:26:51;;;;;;;8.40;7.77;;;21.60;96.20;;;;;;5040343;28;20679;-51
2022/07/14 05:29:17;;;;;;;8.90;8.17;;;21.70;95.80;;;;;;5045804;28;20632;-49
2022/07/14 05:31:42;;;;;;;8.57;8.07;;;21.80;95.30;;;;;;5047407;28;20605;-53
2022/07/14 05:34:08;;;;;;;8.90;8.30;;;21.90;95.00;;;;;;5048283;28;20192;-52
2022/07/14 05:36:34;;;;;;;8.70;8.00;;;22.10;95.00;;;;;;5052900;28;20289;-51
2022/07/14 05:39:01;;;;;;;9.03;8.33;;;22.20;94.90;;;;;;5047684;28;20319;-51
2022/07/14 05:41:26;;;;;;;9.20;8.50;;;22.20;94.70;;;;;;5041856;28;20437;-51
2022/07/14 05:43:52;;;;;;;7.90;7.40;;;22.20;94.30;;;;;;5048472;28;20482;-48
2022/07/14 05:46:19;;;;;;;8.73;8.20;;;22.30;94.30;;;;;;5047359;28;20185;-48
2022/07/14 05:48:44;;;;;;;8.10;7.60;;;22.40;94.00;;;;;;5033173;28;20307;-54
2022/07/14 05:51:16;;;;;;;8.97;8.27;;;22.40;93.80;;;;;;5045730;28;21026;-52
2022/07/14 05:53:43;;;;;;;9.13;8.63;;;22.50;93.50;;;;;;5046528;28;20432;-51
2022/07/14 05:56:13;;;;;;;9.10;8.50;;;22.50;93.30;;;;;;5042604;28;20424;-51
2022/07/14 05:58:39;;;;;;;8.83;8.23;;;22.60;92.70;;;;;;5048329;28;20442;-50
2022/07/14 06:01:07;;;;;;;9.47;8.87;;;22.70;92.60;;;;;;5048047;28;21076;-52
2022/07/14 06:03:34;;;;;;;9.40;8.67;;;22.70;92.30;;;;;;5046347;28;20455;-52
2022/07/14 06:06:01;;;;;;;9.57;8.77;;;22.70;92.50;;;;;;5037618;28;20733;-51
2022/07/14 06:08:26;;;;;;;9.13;8.33;;;22.80;92.10;;;;;;5040205;28;20428;-54
2022/07/14 06:10:55;;;;;;;8.73;8.03;;;22.90;91.90;;;;;;5037036;28;20460;-50
2022/07/14 06:13:25;;;;;;;8.43;7.93;;;23.00;91.80;;;;;;5039303;28;20190;-50
2022/07/14 06:15:50;;;;;;;8.33;7.73;;;23.00;91.40;;;;;;5038639;28;21097;-50
2022/07/14 06:18:16;;;;;;;8.30;7.60;;;23.20;91.10;;;;;;5039056;28;20435;-49
2022/07/14 06:20:42;;;;;;;7.80;7.10;;;23.20;90.90;;;;;;5038797;28;20503;-48
2022/07/14 06:23:09;;;;;;;8.20;7.53;;;23.10;91.00;;;;;;5035902;28;20597;-49
2022/07/14 06:25:39;;;;;;;8.00;7.50;;;23.10;91.00;;;;;;5040119;28;20189;-52
2022/07/14 06:28:06;;;;;;;8.20;7.60;;;23.20;90.40;;;;;;5037764;28;20440;-49
2022/07/14 06:30:32;;;;;;;7.60;7.10;;;23.20;90.10;;;;;;5038279;28;20578;-49
2022/07/14 06:32:58;;;;;;;8.23;7.63;;;23.20;90.30;;;;;;5036049;28;20436;-51
2022/07/14 06:35:24;;;;;;;7.90;7.40;;;23.20;90.40;;;;;;5037401;28;20495;-50
2022/07/14 06:37:54;;;;;;;8.43;7.80;;;23.10;90.60;;;;;;5045552;28;20440;-49
2022/07/14 06:40:20;;;;;;;8.17;7.67;;;23.30;90.50;;;;;;5040833;28;20194;-51
2022/07/14 06:42:46;;;;;;;8.87;8.20;;;23.40;90.20;;;;;;5046047;28;20444;-53
2022/07/14 06:45:12;;;;;;;8.40;7.90;;;23.50;90.20;;;;;;5043651;28;22507;-51
2022/07/14 06:47:38;;;;;;;9.83;8.93;;;23.60;89.10;;;;;;5050337;28;20435;-48
2022/07/14 06:50:05;;;;;;;8.73;8.03;;;23.60;88.80;;;;;;5046272;28;20974;-52
2022/07/14 06:52:31;;;;;;;9.37;8.67;;;23.50;88.20;;;;;;5049122;28;20178;-50
2022/07/14 06:55:00;;;;;;;8.93;8.13;;;23.50;88.70;;;;;;5048441;28;20443;-50
2022/07/14 06:57:26;;;;;;;9.27;8.63;;;23.40;89.00;;;;;;5043666;28;20426;-50
2022/07/14 06:59:53;;;;;;;9.77;9.07;;;23.50;88.70;;;;;;5044066;28;20432;-46
2022/07/14 07:02:19;;;;;;;9.50;8.80;;;23.40;87.90;;;;;;5050699;28;20439;-54
2022/07/14 07:06:43;;;;;;;9.23;8.53;;;23.40;88.10;;;;;;5051048;28;20553;-53
2022/07/14 07:07:34;;;;;;;9.00;8.40;;;23.30;89.00;;;;;;5038249;28;20443;-51
2022/07/14 07:10:00;;;;;;;9.33;8.50;;;23.40;89.10;;;;;;5053463;28;20482;-52
2022/07/14 07:12:25;;;;;;;8.80;8.30;;;23.50;88.60;;;;;;5055166;28;20432;-50
2022/07/14 07:14:51;;;;;;;8.60;8.00;;;23.60;87.80;;;;;;5050066;28;20261;-51
2022/07/14 07:17:17;;;;;;;8.23;7.73;;;23.60;87.40;;;;;;5046991;28;20179;-52
2022/07/14 07:19:42;;;;;;;8.17;7.60;;;23.50;87.00;;;;;;5050824;28;20255;-50
2022/07/14 07:22:08;;;;;;;8.13;7.63;;;23.50;86.90;;;;;;5045419;28;20995;-47
2022/07/14 07:24:33;;;;;;;9.83;8.50;;;23.60;86.90;;;;;;5044158;28;20194;-50
2022/07/14 07:26:59;;;;;;;8.43;7.80;;;23.60;86.30;;;;;;5044946;28;20277;-51
2022/07/14 07:29:25;;;;;;;8.20;7.70;;;23.50;86.80;;;;;;5050970;28;20209;-50
2022/07/14 07:31:52;;;;;;;7.80;7.40;;;23.50;86.90;;;;;;5046600;28;20216;-52
2022/07/14 07:34:17;;;;;;;8.77;8.17;;;23.40;88.00;;;;;;5050760;28;20248;-52
2022/07/14 07:36:43;;;;;;;9.03;8.43;;;23.50;87.40;;;;;;5047788;28;20473;-52
2022/07/14 07:39:09;;;;;;;8.67;7.87;;;23.70;87.50;;;;;;5037378;28;20213;-49
2022/07/14 07:41:35;;;;;;;8.30;7.80;;;23.90;85.20;;;;;;5040802;28;20848;-51
2022/07/14 07:44:01;;;;;;;7.93;7.43;;;24.20;85.30;;;;;;5048642;28;20719;-54
2022/07/14 07:46:26;;;;;;;8.43;7.83;;;24.40;84.20;;;;;;5045227;28;20463;-53
2022/07/14 07:48:52;;;;;;;8.33;7.80;;;24.60;83.20;;;;;;5043250;28;20314;-48
2022/07/14 07:51:18;;;;;;;8.47;7.83;;;24.70;81.60;;;;;;5042946;28;20195;-52
2022/07/14 07:53:44;;;;;;;8.57;7.80;;;24.80;79.90;;;;;;5047540;28;20185;-49
2022/07/14 07:56:10;;;;;;;8.43;7.70;;;24.80;80.00;;;;;;5040888;28;20180;-53
2022/07/14 07:58:35;;;;;;;9.67;8.80;;;24.90;79.70;;;;;;5048423;28;20940;-51
2022/07/14 08:01:02;;;;;;;7.47;6.97;;;25.10;78.50;;;;;;5043872;28;20188;-50
2022/07/14 08:03:28;;;;;;;8.03;7.53;;;25.10;75.60;;;;;;5046346;28;20216;-52
2022/07/14 08:05:53;;;;;;;7.97;7.37;;;25.30;74.70;;;;;;5048231;28;20422;-53
2022/07/14 08:08:19;;;;;;;7.73;7.23;;;25.20;75.70;;;;;;5046435;28;20950;-51
2022/07/14 08:10:44;;;;;;;7.83;7.23;;;25.40;75.30;;;;;;5048816;28;20208;-51
2022/07/14 08:13:11;;;;;;;8.07;7.63;;;25.50;74.10;;;;;;5041177;28;20267;-50
2022/07/14 08:15:37;;;;;;;7.53;6.97;;;25.60;71.20;;;;;;5044794;28;20188;-50
2022/07/14 08:18:03;;;;;;;7.40;6.70;;;25.60;69.90;;;;;;5043812;28;21004;-52
2022/07/14 08:20:29;;;;;;;6.90;6.50;;;25.50;68.70;;;;;;5039833;28;20442;-48
2022/07/14 08:22:55;;;;;;;6.87;6.17;;;25.40;70.50;;;;;;5042628;28;20563;-48
2022/07/14 08:25:21;;;;;;;7.30;6.90;;;25.30;68.30;;;;;;5048758;28;20418;-53
2022/07/14 08:27:46;;;;;;;7.70;7.03;;;25.40;67.80;;;;;;5045066;28;21050;-47
2022/07/14 08:30:12;;;;;;;7.40;6.90;;;25.60;68.40;;;;;;5048446;28;20616;-50
2022/07/14 08:32:44;;;;;;;7.00;6.50;;;25.70;68.10;;;;;;5041727;28;20281;-51
2022/07/14 08:35:14;;;;;;;6.87;6.47;;;25.80;67.60;;;;;;5043370;28;20183;-49
2022/07/14 08:37:40;;;;;;;7.70;7.00;;;25.90;67.40;;;;;;5040925;28;20456;-50
2022/07/14 08:40:09;;;;;;;7.70;7.10;;;25.90;66.60;;;;;;5043646;28;20432;-52
2022/07/14 08:42:36;;;;;;;7.13;6.63;;;26.10;65.30;;;;;;5037181;28;20444;-52
2022/07/14 08:45:10;;;;;;;6.60;6.00;;;26.20;64.90;;;;;;5041607;28;20470;-52
2022/07/14 08:47:37;;;;;;;7.07;6.57;;;26.30;60.50;;;;;;5045306;28;21215;-53
2022/07/14 08:50:07;;;;;;;6.40;6.00;;;26.20;60.80;;;;;;5041539;28;20495;-50
2022/07/14 08:52:34;;;;;;;6.83;6.43;;;26.20;62.50;;;;;;5046995;28;20411;-53
2022/07/14 08:55:00;;;;;;;6.20;5.80;;;26.30;60.90;;;;;;5041095;28;20464;-55
2022/07/14 08:57:26;;;;;;;6.00;5.70;;;26.40;59.50;;;;;;5047287;28;20534;-52
2022/07/14 08:59:52;;;;;;;6.10;5.80;;;26.30;59.50;;;;;;5049443;28;20202;-50
2022/07/14 09:02:18;;;;;;;6.60;6.10;;;26.30;59.60;;;;;;5047222;28;21195;-52
2022/07/14 09:04:45;;;;;;;6.70;6.10;;;26.40;58.70;;;;;;5044000;28;20996;-52
2022/07/14 09:07:12;;;;;;;6.47;5.90;;;26.40;59.10;;;;;;5030768;28;20177;-53
2022/07/14 09:09:38;;;;;;;7.20;6.57;;;26.50;59.10;;;;;;5033805;28;20468;-50
2022/07/14 09:12:06;;;;;;;6.70;6.30;;;26.40;58.80;;;;;;5032416;28;20427;-52
2022/07/14 09:17:25;;;;;;;6.80;6.30;;;26.70;59.80;;;;;;5046658;28;20471;-47
2022/07/14 09:20:07;;;;;;;6.37;5.97;;;26.80;59.60;;;;;;5045584;28;20460;-51
2022/07/14 09:22:34;;;;;;;7.17;6.67;;;26.70;58.70;;;;;;5034469;28;20418;-48
2022/07/14 09:25:03;;;;;;;6.73;6.30;;;26.80;58.50;;;;;;5032988;28;20510;-52
2022/07/14 09:27:29;;;;;;;6.20;5.80;;;26.90;58.30;;;;;;5031649;28;20475;-53
2022/07/14 09:29:55;;;;;;;7.00;6.60;;;27.00;56.60;;;;;;5042330;28;20456;-49
2022/07/14 09:32:41;;;;;;;6.90;6.40;;;27.10;56.80;;;;;;5045179;28;20185;-51
2022/07/14 09:35:07;;;;;;;7.20;6.77;;;27.00;56.40;;;;;;5031291;28;20482;-52
2022/07/14 09:37:33;;;;;;;7.07;6.60;;;26.80;57.10;;;;;;5044094;28;20921;-51
2022/07/14 09:39:59;;;;;;;7.77;7.17;;;26.90;57.70;;;;;;5045001;28;20514;-51
2022/07/14 09:42:53;;;;;;;7.00;6.60;;;27.20;56.50;;;;;;5042842;28;20504;-49
2022/07/14 09:45:27;;;;;;;7.50;6.93;;;27.70;54.60;;;;;;5044083;28;20475;-51
2022/07/14 09:48:08;;;;;;;6.30;5.90;;;27.90;54.30;;;;;;5044870;28;20825;-53
2022/07/14 09:51:00;;;;;;;7.17;6.77;;;28.30;53.00;;;;;;5042961;28;20496;-51
2022/07/14 09:53:31;;;;;;;7.03;6.53;;;28.50;53.40;;;;;;5038212;28;20521;-50
2022/07/14 09:56:07;;;;;;;8.27;7.63;;;28.60;52.70;;;;;;5044326;28;20437;-48
2022/07/14 09:58:44;;;;;;;7.23;6.83;;;28.50;51.00;;;;;;5043737;28;20436;-52
2022/07/14 10:01:12;;;;;;;7.40;6.87;;;28.40;53.10;;;;;;5044736;28;20440;-53
2022/07/14 10:03:42;;;;;;;7.83;7.03;;;28.50;51.60;;;;;;5048756;28;20459;-52
2022/07/14 10:06:09;;;;;;;7.43;6.90;;;28.50;51.70;;;;;;5051661;28;20511;-50
2022/07/14 10:08:39;;;;;;;7.60;7.00;;;28.20;52.70;;;;;;5056435;28;20809;-53
2022/07/14 10:11:05;;;;;;;7.50;7.00;;;28.20;52.50;;;;;;5051165;28;20937;-52
2022/07/14 10:13:31;;;;;;;7.30;6.80;;;28.20;52.80;;;;;;5039947;28;20426;-49
2022/07/14 10:15:57;;;;;;;7.50;6.90;;;28.20;52.90;;;;;;5051518;28;20349;-54
2022/07/14 10:18:25;;;;;;;7.60;7.17;;;28.40;52.60;;;;;;5031618;28;20794;-52
2022/07/14 10:20:57;;;;;;;7.67;7.10;;;28.30;51.90;;;;;;5028233;28;20501;-50
2022/07/14 10:23:24;;;;;;;6.80;6.40;;;28.00;52.80;;;;;;5026864;28;20426;-50
2022/07/14 10:25:52;;;;;;;7.07;6.67;;;28.00;53.10;;;;;;5028301;28;20426;-53
2022/07/14 10:28:19;;;;;;;7.53;7.00;;;28.00;53.70;;;;;;5037375;28;20440;-53
2022/07/14 10:31:22;;;;;;;7.73;7.23;;;28.00;53.00;;;;;;5028501;28;20871;-50
2022/07/14 10:34:27;;;;;;;7.00;6.53;;;27.90;53.30;;;;;;5029222;28;20425;-49
2022/07/14 10:37:03;;;;;;;6.70;6.30;;;28.10;52.70;;;;;;5025502;28;20442;-52
2022/07/14 10:39:34;;;;;;;7.27;6.87;;;28.60;52.60;;;;;;5039548;28;20421;-52
2022/07/14 10:42:21;;;;;;;7.90;7.40;;;29.10;50.60;;;;;;5032341;28;20913;-53
2022/07/14 10:44:47;;;;;;;7.00;6.43;;;29.70;48.80;;;;;;5044857;28;20471;-50
2022/07/14 10:47:15;;;;;;;7.33;6.77;;;30.40;47.90;;;;;;5050147;28;20519;-51
2022/07/14 10:50:01;;;;;;;7.53;7.03;;;31.10;46.10;;;;;;5037655;28;21097;-53
2022/07/14 10:52:29;;;;;;;7.80;7.00;;;32.00;43.80;;;;;;5045805;28;20413;-53
2022/07/14 10:55:32;;;;;;;7.30;6.90;;;31.90;43.10;;;;;;5036651;28;20644;-52
2022/07/14 10:58:04;;;;;;;7.63;7.33;;;32.40;42.00;;;;;;5040393;28;20428;-52
2022/07/14 11:00:44;;;;;;;7.00;6.60;;;32.90;41.40;;;;;;5050787;28;20425;-51
2022/07/14 11:03:20;;;;;;;6.77;6.40;;;33.90;38.30;;;;;;5047807;28;20809;-53
2022/07/14 11:06:09;;;;;;;7.33;6.93;;;33.90;35.50;;;;;;5030217;28;20899;-51
2022/07/14 11:08:42;;;;;;;6.13;5.83;;;33.30;34.90;;;;;;5042464;28;20437;-57
2022/07/14 11:11:23;;;;;;;7.40;7.00;;;33.50;34.80;;;;;;5043974;28;20851;-57
2022/07/14 11:14:00;;;;;;;7.63;7.07;;;33.20;34.10;;;;;;5045575;28;20427;-58
2022/07/14 11:16:45;;;;;;;6.57;6.17;;;32.70;35.60;;;;;;5030841;28;20907;-58
2022/07/14 11:19:35;;;;;;;6.80;6.30;;;32.60;36.80;;;;;;5042643;28;20433;-59
2022/07/14 11:22:21;;;;;;;6.67;6.27;;;32.30;37.60;;;;;;5045734;28;20608;-58
2022/07/14 11:24:48;;;;;;;6.50;6.20;;;32.60;36.70;;;;;;5052944;28;20424;-58
2022/07/14 11:27:48;;;;;;;6.00;5.70;;;33.10;35.50;;;;;;5045298;28;20428;-58
2022/07/14 11:30:29;;;;;;;7.03;6.53;;;33.60;34.20;;;;;;5047073;28;20526;-59
2022/07/14 11:33:09;;;;;;;6.50;6.17;;;34.20;33.30;;;;;;5047063;28;20454;-58
2022/07/14 11:38:40;;;;;;;6.93;6.43;;;34.20;32.30;;;;;;5043531;28;20503;-58
2022/07/14 11:41:12;;;;;;;7.30;6.80;;;33.90;31.90;;;;;;5046039;28;20413;-58
2022/07/14 11:43:46;;;;;;;7.40;6.83;;;33.30;33.40;;;;;;5046748;28;20471;-58
2022/07/14 11:46:22;;;;;;;7.20;6.70;;;32.70;35.40;;;;;;5043311;28;20489;-58
2022/07/14 11:48:53;;;;;;;6.97;6.50;;;32.60;35.20;;;;;;5040272;28;20893;-58
2022/07/14 11:51:25;;;;;;;7.10;6.70;;;32.90;34.20;;;;;;5047857;28;20466;-57
2022/07/14 11:54:01;;;;;;;8.10;7.37;;;32.50;34.00;;;;;;5048441;28;20510;-59
2022/07/14 11:56:28;;;;;;;8.53;7.93;;;31.90;35.80;;;;;;5044605;28;21136;-59
2022/07/14 11:58:58;;;;;;;7.40;6.80;;;31.60;35.60;;;;;;5043409;28;20417;-56
2022/07/14 12:01:30;;;;;;;8.30;7.80;;;31.20;36.50;;;;;;5048081;28;20919;-56
2022/07/14 12:04:05;;;;;;;8.17;7.67;;;31.00;37.00;;;;;;5048482;28;20859;-59
2022/07/14 12:06:31;;;;;;;7.93;7.53;;;30.40;38.00;;;;;;5049297;28;20446;-58
2022/07/14 12:08:57;;;;;;;8.20;7.70;;;29.60;39.10;;;;;;5047678;28;20417;-59
2022/07/14 12:11:22;;;;;;;8.10;7.60;;;29.20;40.50;;;;;;5049220;28;20644;-57
2022/07/14 12:13:55;;;;;;;7.43;7.03;;;29.30;40.50;;;;;;5051709;28;20176;-59
2022/07/14 12:16:22;;;;;;;7.37;6.97;;;29.50;40.50;;;;;;5047683;28;20696;-58
2022/07/14 12:18:51;;;;;;;7.67;7.27;;;29.80;40.30;;;;;;5046231;28;20516;-55
2022/07/14 12:21:32;;;;;;;7.13;6.70;;;29.30;40.90;;;;;;5048489;28;20433;-57
2022/07/14 12:23:58;;;;;;;7.27;6.67;;;29.70;40.90;;;;;;5048090;28;20853;-56
2022/07/14 12:26:25;;;;;;;7.63;6.97;;;30.10;40.80;;;;;;5047465;28;20447;-58
2022/07/14 12:28:53;;;;;;;7.47;7.07;;;30.80;39.50;;;;;;5033505;28;20198;-59
2022/07/14 12:31:19;;;;;;;6.90;6.30;;;31.20;37.00;;;;;;5048087;28;20465;-57
2022/07/14 12:33:46;;;;;;;6.43;6.03;;;31.00;37.90;;;;;;5036046;28;20425;-58
2022/07/14 12:36:14;;;;;;;8.17;7.33;;;30.70;37.60;;;;;;5048111;28;20795;-58
2022/07/14 12:38:40;;;;;;;8.13;7.63;;;30.70;37.80;;;;;;5046573;28;20798;-58
2022/07/14 12:41:07;;;;;;;7.73;7.00;;;29.90;38.90;;;;;;5048782;28;20504;-57
2022/07/14 12:43:35;;;;;;;8.03;7.43;;;29.40;40.30;;;;;;5040667;28;20507;-59
2022/07/14 12:46:10;;;;;;;7.63;7.13;;;28.90;41.50;;;;;;5048375;28;20783;-58
2022/07/14 12:48:48;;;;;;;7.40;6.93;;;28.90;41.70;;;;;;5047350;28;20944;-58
2022/07/14 12:51:20;;;;;;;7.57;7.07;;;28.60;42.10;;;;;;5048267;28;20530;-58
2022/07/14 12:54:04;;;;;;;7.47;6.90;;;28.80;42.30;;;;;;5046347;28;20447;-58
2022/07/14 12:56:44;;;;;;;7.73;7.23;;;29.30;41.00;;;;;;5046856;28;20423;-57
2022/07/14 12:59:12;;;;;;;8.17;7.67;;;29.40;41.30;;;;;;5038666;28;20428;-57
2022/07/14 13:02:00;;;;;;;8.53;8.00;;;29.40;40.50;;;;;;5042577;28;20980;-58
2022/07/14 13:04:29;;;;;;;8.10;7.40;;;29.50;40.70;;;;;;5046968;28;20429;-58
2022/07/14 13:06:56;;;;;;;7.97;7.37;;;29.40;41.20;;;;;;5047730;28;20429;-57